sensor_id;sensor_type;location;lat;lon;timestamp;P1;durP1;ratioP1;P2;durP2;ratioP2
2866;SDS011;1441;48.886;8.728;2023-07-24T00:01:15;10.53;;;7.23;;
2866;SDS011;1441;48.886;8.728;2023-07-24T00:03:42;8.97;;;6.57;;
2866;SDS011;1441;48.886;8.728;2023-07-24T00:06:08;8.67;;;6.43;;
2866;SDS011;1441;48.886;8.728;2023-07-24T00:08:34;9.40;;;6.47;;
2866;SDS011;1441;48.886;8.728;2023-07-24T00:10:59;11.57;;;8.60;;
2866;SDS011;1441;48.886;8.728;2023-07-24T00:13:27;10.00;;;6.30;;
2866;SDS011;1441;48.886;8.728;2023-07-24T00:15:53;8.93;;;6.93;;
2866;SDS011;1441;48.886;8.728;2023-07-24T00:18:18;12.67;;;6.70;;
2866;SDS011;1441;48.886;8.728;2023-07-24T00:20:44;12.07;;;6.70;;
2866;SDS011;1441;48.886;8.728;2023-07-24T00:23:09;11.13;;;7.57;;
2866;SDS011;1441;48.886;8.728;2023-07-24T00:25:35;12.77;;;8.10;;
2866;SDS011;1441;48.886;8.728;2023-07-24T00:28:01;9.93;;;6.90;;
2866;SDS011;1441;48.886;8.728;2023-07-24T00:30:26;9.00;;;6.40;;
2866;SDS011;1441;48.886;8.728;2023-07-24T00:32:52;11.33;;;7.50;;
2866;SDS011;1441;48.886;8.728;2023-07-24T00:35:17;7.97;;;6.40;;
2866;SDS011;1441;48.886;8.728;2023-07-24T00:37:43;9.73;;;7.30;;
2866;SDS011;1441;48.886;8.728;2023-07-24T00:40:08;9.30;;;6.40;;
2866;SDS011;1441;48.886;8.728;2023-07-24T00:42:34;8.07;;;6.80;;
2866;SDS011;1441;48.886;8.728;2023-07-24T00:44:59;11.43;;;7.00;;
2866;SDS011;1441;48.886;8.728;2023-07-24T00:47:25;9.03;;;6.60;;
2866;SDS011;1441;48.886;8.728;2023-07-24T00:49:52;10.30;;;6.53;;
2866;SDS011;1441;48.886;8.728;2023-07-24T00:52:18;9.93;;;6.10;;
2866;SDS011;1441;48.886;8.728;2023-07-24T00:54:44;8.50;;;5.87;;
2866;SDS011;1441;48.886;8.728;2023-07-24T00:57:11;10.47;;;7.87;;
2866;SDS011;1441;48.886;8.728;2023-07-24T00:59:37;9.07;;;6.33;;
2866;SDS011;1441;48.886;8.728;2023-07-24T01:02:02;9.33;;;6.37;;
2866;SDS011;1441;48.886;8.728;2023-07-24T01:04:28;10.03;;;6.90;;
2866;SDS011;1441;48.886;8.728;2023-07-24T01:06:54;9.77;;;7.10;;
2866;SDS011;1441;48.886;8.728;2023-07-24T01:09:20;8.53;;;6.23;;
2866;SDS011;1441;48.886;8.728;2023-07-24T01:11:46;9.23;;;6.73;;
2866;SDS011;1441;48.886;8.728;2023-07-24T01:16:54;9.87;;;6.87;;
2866;SDS011;1441;48.886;8.728;2023-07-24T01:27:10;8.20;;;6.17;;
2866;SDS011;1441;48.886;8.728;2023-07-24T01:29:35;8.53;;;7.20;;
2866;SDS011;1441;48.886;8.728;2023-07-24T01:32:01;10.17;;;7.00;;
2866;SDS011;1441;48.886;8.728;2023-07-24T01:34:26;8.30;;;7.07;;
2866;SDS011;1441;48.886;8.728;2023-07-24T01:36:52;10.30;;;6.67;;
2866;SDS011;1441;48.886;8.728;2023-07-24T01:39:19;12.40;;;7.67;;
2866;SDS011;1441;48.886;8.728;2023-07-24T01:41:46;9.40;;;6.83;;
2866;SDS011;1441;48.886;8.728;2023-07-24T01:44:12;10.90;;;7.97;;
2866;SDS011;1441;48.886;8.728;2023-07-24T01:46:38;10.83;;;7.60;;
2866;SDS011;1441;48.886;8.728;2023-07-24T01:49:03;8.83;;;7.20;;
2866;SDS011;1441;48.886;8.728;2023-07-24T01:51:29;9.10;;;7.43;;
2866;SDS011;1441;48.886;8.728;2023-07-24T01:53:55;10.30;;;6.60;;
2866;SDS011;1441;48.886;8.728;2023-07-24T01:56:21;9.77;;;7.30;;
2866;SDS011;1441;48.886;8.728;2023-07-24T01:58:47;7.97;;;6.37;;
2866;SDS011;1441;48.886;8.728;2023-07-24T02:01:12;9.63;;;7.40;;
2866;SDS011;1441;48.886;8.728;2023-07-24T02:03:39;9.57;;;6.83;;
2866;SDS011;1441;48.886;8.728;2023-07-24T02:06:05;8.93;;;7.07;;
2866;SDS011;1441;48.886;8.728;2023-07-24T02:08:30;10.43;;;7.77;;
2866;SDS011;1441;48.886;8.728;2023-07-24T02:10:56;8.13;;;6.20;;
2866;SDS011;1441;48.886;8.728;2023-07-24T02:13:21;10.00;;;6.87;;
2866;SDS011;1441;48.886;8.728;2023-07-24T02:15:47;14.67;;;7.27;;
2866;SDS011;1441;48.886;8.728;2023-07-24T02:18:12;10.10;;;6.80;;
2866;SDS011;1441;48.886;8.728;2023-07-24T02:20:38;8.67;;;6.70;;
2866;SDS011;1441;48.886;8.728;2023-07-24T02:23:03;11.07;;;6.97;;
2866;SDS011;1441;48.886;8.728;2023-07-24T02:25:29;9.93;;;7.17;;
2866;SDS011;1441;48.886;8.728;2023-07-24T02:27:54;9.83;;;6.87;;
2866;SDS011;1441;48.886;8.728;2023-07-24T02:30:20;12.50;;;6.90;;
2866;SDS011;1441;48.886;8.728;2023-07-24T02:32:45;10.23;;;6.67;;
2866;SDS011;1441;48.886;8.728;2023-07-24T02:35:11;9.50;;;6.57;;
2866;SDS011;1441;48.886;8.728;2023-07-24T02:37:36;11.57;;;6.70;;
2866;SDS011;1441;48.886;8.728;2023-07-24T02:40:02;14.27;;;6.30;;
2866;SDS011;1441;48.886;8.728;2023-07-24T02:42:28;9.10;;;6.73;;
2866;SDS011;1441;48.886;8.728;2023-07-24T02:44:53;8.90;;;6.20;;
2866;SDS011;1441;48.886;8.728;2023-07-24T02:47:19;10.27;;;6.93;;
2866;SDS011;1441;48.886;8.728;2023-07-24T02:49:44;9.90;;;6.80;;
2866;SDS011;1441;48.886;8.728;2023-07-24T02:52:10;8.37;;;6.47;;
2866;SDS011;1441;48.886;8.728;2023-07-24T02:54:36;10.50;;;6.80;;
2866;SDS011;1441;48.886;8.728;2023-07-24T02:57:01;9.80;;;6.93;;
2866;SDS011;1441;48.886;8.728;2023-07-24T02:59:27;13.07;;;7.40;;
2866;SDS011;1441;48.886;8.728;2023-07-24T03:01:54;9.30;;;7.07;;
2866;SDS011;1441;48.886;8.728;2023-07-24T03:04:20;14.83;;;7.77;;
2866;SDS011;1441;48.886;8.728;2023-07-24T03:06:46;12.33;;;7.67;;
2866;SDS011;1441;48.886;8.728;2023-07-24T03:09:11;9.20;;;7.00;;
2866;SDS011;1441;48.886;8.728;2023-07-24T03:11:37;12.73;;;7.47;;
2866;SDS011;1441;48.886;8.728;2023-07-24T03:14:02;9.80;;;7.20;;
2866;SDS011;1441;48.886;8.728;2023-07-24T03:16:28;10.03;;;7.87;;
2866;SDS011;1441;48.886;8.728;2023-07-24T03:18:54;9.10;;;7.93;;
2866;SDS011;1441;48.886;8.728;2023-07-24T03:21:20;10.07;;;7.03;;
2866;SDS011;1441;48.886;8.728;2023-07-24T03:23:46;9.03;;;7.40;;
2866;SDS011;1441;48.886;8.728;2023-07-24T03:26:11;11.93;;;8.43;;
2866;SDS011;1441;48.886;8.728;2023-07-24T03:28:37;9.30;;;7.30;;
2866;SDS011;1441;48.886;8.728;2023-07-24T03:31:02;7.70;;;6.73;;
2866;SDS011;1441;48.886;8.728;2023-07-24T03:33:28;10.67;;;6.43;;
2866;SDS011;1441;48.886;8.728;2023-07-24T03:35:53;7.93;;;6.40;;
2866;SDS011;1441;48.886;8.728;2023-07-24T03:38:19;8.63;;;6.50;;
2866;SDS011;1441;48.886;8.728;2023-07-24T03:40:44;12.10;;;6.97;;
2866;SDS011;1441;48.886;8.728;2023-07-24T03:43:10;11.80;;;7.20;;
2866;SDS011;1441;48.886;8.728;2023-07-24T03:45:35;10.90;;;6.90;;
2866;SDS011;1441;48.886;8.728;2023-07-24T03:48:01;8.10;;;6.40;;
2866;SDS011;1441;48.886;8.728;2023-07-24T03:50:28;11.30;;;6.90;;
2866;SDS011;1441;48.886;8.728;2023-07-24T03:52:54;9.57;;;6.40;;
2866;SDS011;1441;48.886;8.728;2023-07-24T03:55:20;11.67;;;6.60;;
2866;SDS011;1441;48.886;8.728;2023-07-24T03:57:45;9.57;;;6.83;;
2866;SDS011;1441;48.886;8.728;2023-07-24T04:00:11;8.70;;;6.07;;
2866;SDS011;1441;48.886;8.728;2023-07-24T04:02:37;11.50;;;7.20;;
2866;SDS011;1441;48.886;8.728;2023-07-24T04:05:04;11.83;;;7.47;;
2866;SDS011;1441;48.886;8.728;2023-07-24T04:07:30;11.70;;;6.80;;
2866;SDS011;1441;48.886;8.728;2023-07-24T04:09:55;11.13;;;6.97;;
2866;SDS011;1441;48.886;8.728;2023-07-24T04:12:21;10.43;;;7.27;;
2866;SDS011;1441;48.886;8.728;2023-07-24T04:14:46;9.10;;;6.33;;
2866;SDS011;1441;48.886;8.728;2023-07-24T04:17:13;9.97;;;7.80;;
2866;SDS011;1441;48.886;8.728;2023-07-24T04:19:39;13.40;;;7.37;;
2866;SDS011;1441;48.886;8.728;2023-07-24T04:22:05;10.77;;;7.07;;
2866;SDS011;1441;48.886;8.728;2023-07-24T04:24:31;10.53;;;7.50;;
2866;SDS011;1441;48.886;8.728;2023-07-24T04:26:56;9.90;;;6.03;;
2866;SDS011;1441;48.886;8.728;2023-07-24T04:29:22;9.07;;;7.37;;
2866;SDS011;1441;48.886;8.728;2023-07-24T04:31:50;11.17;;;7.47;;
2866;SDS011;1441;48.886;8.728;2023-07-24T04:34:17;16.13;;;6.83;;
2866;SDS011;1441;48.886;8.728;2023-07-24T04:36:43;12.00;;;7.43;;
2866;SDS011;1441;48.886;8.728;2023-07-24T04:39:09;11.67;;;7.00;;
2866;SDS011;1441;48.886;8.728;2023-07-24T04:41:35;12.10;;;7.60;;
2866;SDS011;1441;48.886;8.728;2023-07-24T04:44:00;10.17;;;7.23;;
2866;SDS011;1441;48.886;8.728;2023-07-24T04:46:26;9.90;;;6.60;;
2866;SDS011;1441;48.886;8.728;2023-07-24T04:48:51;7.80;;;6.40;;
2866;SDS011;1441;48.886;8.728;2023-07-24T04:51:17;9.73;;;7.07;;
2866;SDS011;1441;48.886;8.728;2023-07-24T04:53:43;7.57;;;6.50;;
2866;SDS011;1441;48.886;8.728;2023-07-24T04:56:09;8.37;;;6.53;;
2866;SDS011;1441;48.886;8.728;2023-07-24T04:58:35;10.33;;;6.67;;
2866;SDS011;1441;48.886;8.728;2023-07-24T05:01:04;17.00;;;7.67;;
2866;SDS011;1441;48.886;8.728;2023-07-24T05:03:30;10.27;;;7.53;;
2866;SDS011;1441;48.886;8.728;2023-07-24T05:05:56;7.20;;;6.50;;
2866;SDS011;1441;48.886;8.728;2023-07-24T05:08:22;10.77;;;7.40;;
2866;SDS011;1441;48.886;8.728;2023-07-24T05:10:53;9.87;;;7.07;;
2866;SDS011;1441;48.886;8.728;2023-07-24T05:13:20;11.97;;;7.27;;
2866;SDS011;1441;48.886;8.728;2023-07-24T05:15:45;14.13;;;7.13;;
2866;SDS011;1441;48.886;8.728;2023-07-24T05:18:11;11.23;;;6.77;;
2866;SDS011;1441;48.886;8.728;2023-07-24T05:20:36;11.33;;;7.90;;
2866;SDS011;1441;48.886;8.728;2023-07-24T05:23:02;12.60;;;7.70;;
2866;SDS011;1441;48.886;8.728;2023-07-24T05:25:28;10.70;;;7.10;;
2866;SDS011;1441;48.886;8.728;2023-07-24T05:27:53;8.53;;;7.13;;
2866;SDS011;1441;48.886;8.728;2023-07-24T05:30:19;10.83;;;7.47;;
2866;SDS011;1441;48.886;8.728;2023-07-24T05:32:44;11.07;;;8.13;;
2866;SDS011;1441;48.886;8.728;2023-07-24T05:35:10;11.30;;;7.10;;
2866;SDS011;1441;48.886;8.728;2023-07-24T05:37:35;10.80;;;7.30;;
2866;SDS011;1441;48.886;8.728;2023-07-24T05:40:01;9.97;;;7.50;;
2866;SDS011;1441;48.886;8.728;2023-07-24T05:42:26;10.10;;;7.00;;
2866;SDS011;1441;48.886;8.728;2023-07-24T05:44:52;10.60;;;6.87;;
2866;SDS011;1441;48.886;8.728;2023-07-24T05:47:18;12.80;;;7.23;;
2866;SDS011;1441;48.886;8.728;2023-07-24T05:49:44;9.73;;;7.17;;
2866;SDS011;1441;48.886;8.728;2023-07-24T05:52:09;12.70;;;7.40;;
2866;SDS011;1441;48.886;8.728;2023-07-24T05:54:35;9.07;;;6.83;;
2866;SDS011;1441;48.886;8.728;2023-07-24T05:57:00;10.80;;;6.90;;
2866;SDS011;1441;48.886;8.728;2023-07-24T05:59:26;9.97;;;7.10;;
2866;SDS011;1441;48.886;8.728;2023-07-24T06:01:51;8.83;;;7.23;;
2866;SDS011;1441;48.886;8.728;2023-07-24T06:04:17;10.50;;;7.20;;
2866;SDS011;1441;48.886;8.728;2023-07-24T06:06:43;8.97;;;7.13;;
2866;SDS011;1441;48.886;8.728;2023-07-24T06:09:08;11.27;;;7.50;;
2866;SDS011;1441;48.886;8.728;2023-07-24T06:11:34;11.53;;;8.80;;
2866;SDS011;1441;48.886;8.728;2023-07-24T06:13:59;9.57;;;7.30;;
2866;SDS011;1441;48.886;8.728;2023-07-24T06:16:25;11.03;;;7.20;;
2866;SDS011;1441;48.886;8.728;2023-07-24T06:18:50;8.90;;;6.27;;
2866;SDS011;1441;48.886;8.728;2023-07-24T06:21:16;10.03;;;7.37;;
2866;SDS011;1441;48.886;8.728;2023-07-24T06:23:41;13.00;;;8.00;;
2866;SDS011;1441;48.886;8.728;2023-07-24T06:26:07;13.13;;;8.07;;
2866;SDS011;1441;48.886;8.728;2023-07-24T06:28:32;12.23;;;7.27;;
2866;SDS011;1441;48.886;8.728;2023-07-24T06:30:58;13.70;;;7.90;;
2866;SDS011;1441;48.886;8.728;2023-07-24T06:33:23;11.73;;;7.47;;
2866;SDS011;1441;48.886;8.728;2023-07-24T06:35:49;9.50;;;7.57;;
2866;SDS011;1441;48.886;8.728;2023-07-24T06:38:15;12.97;;;7.33;;
2866;SDS011;1441;48.886;8.728;2023-07-24T06:40:41;8.30;;;6.87;;
2866;SDS011;1441;48.886;8.728;2023-07-24T06:43:07;8.93;;;6.40;;
2866;SDS011;1441;48.886;8.728;2023-07-24T06:45:32;11.37;;;7.00;;
2866;SDS011;1441;48.886;8.728;2023-07-24T06:47:58;8.30;;;6.77;;
2866;SDS011;1441;48.886;8.728;2023-07-24T06:50:23;9.50;;;6.83;;
2866;SDS011;1441;48.886;8.728;2023-07-24T06:52:49;10.03;;;6.57;;
2866;SDS011;1441;48.886;8.728;2023-07-24T06:55:16;8.70;;;7.07;;
2866;SDS011;1441;48.886;8.728;2023-07-24T06:57:41;7.90;;;6.07;;
2866;SDS011;1441;48.886;8.728;2023-07-24T07:00:07;8.80;;;6.90;;
2866;SDS011;1441;48.886;8.728;2023-07-24T07:02:36;7.40;;;6.60;;
2866;SDS011;1441;48.886;8.728;2023-07-24T07:05:02;10.43;;;6.90;;
2866;SDS011;1441;48.886;8.728;2023-07-24T07:07:28;8.80;;;6.50;;
2866;SDS011;1441;48.886;8.728;2023-07-24T07:09:53;8.63;;;6.53;;
2866;SDS011;1441;48.886;8.728;2023-07-24T07:12:19;10.80;;;7.33;;
2866;SDS011;1441;48.886;8.728;2023-07-24T07:14:45;10.07;;;7.03;;
2866;SDS011;1441;48.886;8.728;2023-07-24T07:17:10;10.33;;;7.80;;
2866;SDS011;1441;48.886;8.728;2023-07-24T07:19:36;10.07;;;7.80;;
2866;SDS011;1441;48.886;8.728;2023-07-24T07:22:01;10.33;;;7.00;;
2866;SDS011;1441;48.886;8.728;2023-07-24T07:24:27;11.60;;;7.80;;
2866;SDS011;1441;48.886;8.728;2023-07-24T07:26:52;12.03;;;7.47;;
2866;SDS011;1441;48.886;8.728;2023-07-24T07:29:18;11.13;;;7.87;;
2866;SDS011;1441;48.886;8.728;2023-07-24T07:31:43;8.27;;;6.67;;
2866;SDS011;1441;48.886;8.728;2023-07-24T07:34:09;9.90;;;7.87;;
2866;SDS011;1441;48.886;8.728;2023-07-24T07:36:34;13.80;;;9.37;;
2866;SDS011;1441;48.886;8.728;2023-07-24T07:39:00;9.90;;;7.50;;
2866;SDS011;1441;48.886;8.728;2023-07-24T07:41:26;10.33;;;7.70;;
2866;SDS011;1441;48.886;8.728;2023-07-24T07:43:52;15.40;;;8.03;;
2866;SDS011;1441;48.886;8.728;2023-07-24T07:46:17;10.47;;;7.70;;
2866;SDS011;1441;48.886;8.728;2023-07-24T07:48:43;11.63;;;7.97;;
2866;SDS011;1441;48.886;8.728;2023-07-24T07:51:08;8.93;;;7.23;;
2866;SDS011;1441;48.886;8.728;2023-07-24T07:53:34;9.80;;;7.10;;
2866;SDS011;1441;48.886;8.728;2023-07-24T07:55:59;12.00;;;7.17;;
2866;SDS011;1441;48.886;8.728;2023-07-24T07:58:25;17.13;;;8.00;;
2866;SDS011;1441;48.886;8.728;2023-07-24T08:00:50;11.30;;;7.30;;
2866;SDS011;1441;48.886;8.728;2023-07-24T08:03:16;14.67;;;7.57;;
2866;SDS011;1441;48.886;8.728;2023-07-24T08:05:42;14.23;;;7.20;;
2866;SDS011;1441;48.886;8.728;2023-07-24T08:08:07;22.23;;;8.43;;
2866;SDS011;1441;48.886;8.728;2023-07-24T08:10:33;12.20;;;7.57;;
2866;SDS011;1441;48.886;8.728;2023-07-24T08:12:58;8.83;;;6.30;;
2866;SDS011;1441;48.886;8.728;2023-07-24T08:15:24;11.37;;;6.97;;
2866;SDS011;1441;48.886;8.728;2023-07-24T08:17:49;14.87;;;6.33;;
2866;SDS011;1441;48.886;8.728;2023-07-24T08:20:15;8.57;;;6.40;;
2866;SDS011;1441;48.886;8.728;2023-07-24T08:22:40;10.10;;;6.93;;
2866;SDS011;1441;48.886;8.728;2023-07-24T08:25:06;9.30;;;6.93;;
2866;SDS011;1441;48.886;8.728;2023-07-24T08:27:32;8.63;;;6.30;;
2866;SDS011;1441;48.886;8.728;2023-07-24T08:29:57;8.80;;;7.00;;
2866;SDS011;1441;48.886;8.728;2023-07-24T08:32:23;8.33;;;6.60;;
2866;SDS011;1441;48.886;8.728;2023-07-24T08:34:48;7.50;;;6.30;;
2866;SDS011;1441;48.886;8.728;2023-07-24T08:37:14;10.20;;;6.20;;
2866;SDS011;1441;48.886;8.728;2023-07-24T08:39:39;9.03;;;6.97;;
2866;SDS011;1441;48.886;8.728;2023-07-24T08:42:12;8.47;;;6.07;;
2866;SDS011;1441;48.886;8.728;2023-07-24T08:44:38;9.70;;;6.17;;
2866;SDS011;1441;48.886;8.728;2023-07-24T08:47:04;8.60;;;6.10;;
2866;SDS011;1441;48.886;8.728;2023-07-24T08:49:31;7.97;;;6.30;;
2866;SDS011;1441;48.886;8.728;2023-07-24T08:51:58;8.50;;;5.50;;
2866;SDS011;1441;48.886;8.728;2023-07-24T08:54:26;7.73;;;6.83;;
2866;SDS011;1441;48.886;8.728;2023-07-24T08:56:52;7.90;;;6.00;;
2866;SDS011;1441;48.886;8.728;2023-07-24T08:59:17;7.97;;;6.23;;
2866;SDS011;1441;48.886;8.728;2023-07-24T09:01:43;8.50;;;6.50;;
2866;SDS011;1441;48.886;8.728;2023-07-24T09:04:09;9.27;;;5.70;;
2866;SDS011;1441;48.886;8.728;2023-07-24T09:06:35;7.97;;;6.00;;
2866;SDS011;1441;48.886;8.728;2023-07-24T09:09:02;8.27;;;5.97;;
2866;SDS011;1441;48.886;8.728;2023-07-24T09:11:28;8.70;;;6.77;;
2866;SDS011;1441;48.886;8.728;2023-07-24T09:13:53;7.43;;;6.60;;
2866;SDS011;1441;48.886;8.728;2023-07-24T09:16:22;7.03;;;6.10;;
2866;SDS011;1441;48.886;8.728;2023-07-24T09:18:49;7.87;;;5.97;;
2866;SDS011;1441;48.886;8.728;2023-07-24T09:21:28;7.30;;;6.13;;
2866;SDS011;1441;48.886;8.728;2023-07-24T09:23:55;11.20;;;6.87;;
2866;SDS011;1441;48.886;8.728;2023-07-24T09:26:20;9.23;;;6.13;;
2866;SDS011;1441;48.886;8.728;2023-07-24T09:28:53;7.40;;;5.47;;
2866;SDS011;1441;48.886;8.728;2023-07-24T09:31:19;8.30;;;5.10;;
2866;SDS011;1441;48.886;8.728;2023-07-24T09:33:44;6.60;;;5.30;;
2866;SDS011;1441;48.886;8.728;2023-07-24T09:36:11;8.23;;;5.80;;
2866;SDS011;1441;48.886;8.728;2023-07-24T09:38:37;9.03;;;6.60;;
2866;SDS011;1441;48.886;8.728;2023-07-24T09:41:04;7.80;;;6.43;;
2866;SDS011;1441;48.886;8.728;2023-07-24T09:43:31;6.57;;;5.77;;
2866;SDS011;1441;48.886;8.728;2023-07-24T09:45:57;6.30;;;5.70;;
2866;SDS011;1441;48.886;8.728;2023-07-24T09:48:23;8.63;;;6.50;;
2866;SDS011;1441;48.886;8.728;2023-07-24T09:50:55;8.93;;;5.67;;
2866;SDS011;1441;48.886;8.728;2023-07-24T09:56:03;6.53;;;5.80;;
2866;SDS011;1441;48.886;8.728;2023-07-24T09:58:32;10.93;;;6.67;;
2866;SDS011;1441;48.886;8.728;2023-07-24T10:00:59;6.30;;;5.57;;
2866;SDS011;1441;48.886;8.728;2023-07-24T10:03:28;7.87;;;6.20;;
2866;SDS011;1441;48.886;8.728;2023-07-24T10:05:55;6.70;;;6.00;;
2866;SDS011;1441;48.886;8.728;2023-07-24T10:08:21;6.80;;;5.80;;
2866;SDS011;1441;48.886;8.728;2023-07-24T10:10:47;6.13;;;5.53;;
2866;SDS011;1441;48.886;8.728;2023-07-24T10:13:16;7.63;;;6.50;;
2866;SDS011;1441;48.886;8.728;2023-07-24T10:15:42;8.87;;;6.20;;
2866;SDS011;1441;48.886;8.728;2023-07-24T10:18:09;7.50;;;5.90;;
2866;SDS011;1441;48.886;8.728;2023-07-24T10:20:35;6.50;;;5.50;;
2866;SDS011;1441;48.886;8.728;2023-07-24T10:23:03;7.60;;;6.40;;
2866;SDS011;1441;48.886;8.728;2023-07-24T10:25:30;6.20;;;5.50;;
2866;SDS011;1441;48.886;8.728;2023-07-24T10:28:06;8.23;;;5.33;;
2866;SDS011;1441;48.886;8.728;2023-07-24T10:30:36;9.23;;;5.97;;
2866;SDS011;1441;48.886;8.728;2023-07-24T10:33:13;6.60;;;5.90;;
2866;SDS011;1441;48.886;8.728;2023-07-24T10:38:16;9.83;;;5.90;;
2866;SDS011;1441;48.886;8.728;2023-07-24T10:40:42;12.00;;;6.07;;
2866;SDS011;1441;48.886;8.728;2023-07-24T10:43:11;8.43;;;6.83;;
2866;SDS011;1441;48.886;8.728;2023-07-24T10:45:42;9.80;;;7.03;;
2866;SDS011;1441;48.886;8.728;2023-07-24T10:48:11;7.43;;;6.23;;
2866;SDS011;1441;48.886;8.728;2023-07-24T10:50:38;7.30;;;5.60;;
2866;SDS011;1441;48.886;8.728;2023-07-24T10:53:08;8.03;;;6.53;;
2866;SDS011;1441;48.886;8.728;2023-07-24T10:55:35;8.03;;;6.50;;
2866;SDS011;1441;48.886;8.728;2023-07-24T10:58:00;7.00;;;6.10;;
2866;SDS011;1441;48.886;8.728;2023-07-24T11:00:26;11.20;;;6.70;;
2866;SDS011;1441;48.886;8.728;2023-07-24T11:02:53;7.33;;;5.80;;
2866;SDS011;1441;48.886;8.728;2023-07-24T11:05:20;8.57;;;6.90;;
2866;SDS011;1441;48.886;8.728;2023-07-24T11:07:47;8.47;;;6.50;;
2866;SDS011;1441;48.886;8.728;2023-07-24T11:10:19;8.10;;;6.00;;
2866;SDS011;1441;48.886;8.728;2023-07-24T11:12:47;8.40;;;5.53;;
2866;SDS011;1441;48.886;8.728;2023-07-24T11:15:13;9.17;;;6.87;;
2866;SDS011;1441;48.886;8.728;2023-07-24T11:17:39;6.30;;;5.57;;
2866;SDS011;1441;48.886;8.728;2023-07-24T11:22:32;9.73;;;6.47;;
2866;SDS011;1441;48.886;8.728;2023-07-24T11:24:58;10.13;;;6.13;;
2866;SDS011;1441;48.886;8.728;2023-07-24T11:27:24;7.43;;;6.27;;
2866;SDS011;1441;48.886;8.728;2023-07-24T11:29:50;6.57;;;5.50;;
2866;SDS011;1441;48.886;8.728;2023-07-24T11:32:22;10.10;;;6.73;;
2866;SDS011;1441;48.886;8.728;2023-07-24T11:34:48;7.77;;;5.40;;
2866;SDS011;1441;48.886;8.728;2023-07-24T11:37:15;6.23;;;5.63;;
2866;SDS011;1441;48.886;8.728;2023-07-24T11:39:41;6.37;;;5.70;;
2866;SDS011;1441;48.886;8.728;2023-07-24T11:42:06;7.20;;;5.37;;
2866;SDS011;1441;48.886;8.728;2023-07-24T11:44:32;6.53;;;5.90;;
2866;SDS011;1441;48.886;8.728;2023-07-24T11:47:01;7.97;;;5.50;;
2866;SDS011;1441;48.886;8.728;2023-07-24T11:49:28;9.33;;;5.50;;
2866;SDS011;1441;48.886;8.728;2023-07-24T11:52:00;9.90;;;5.90;;
2866;SDS011;1441;48.886;8.728;2023-07-24T11:54:28;5.77;;;5.20;;
2866;SDS011;1441;48.886;8.728;2023-07-24T11:56:54;7.70;;;5.67;;
2866;SDS011;1441;48.886;8.728;2023-07-24T11:59:19;7.30;;;6.50;;
2866;SDS011;1441;48.886;8.728;2023-07-24T12:01:45;7.83;;;6.07;;
2866;SDS011;1441;48.886;8.728;2023-07-24T12:04:15;8.40;;;5.73;;
2866;SDS011;1441;48.886;8.728;2023-07-24T12:06:41;7.20;;;5.20;;
2866;SDS011;1441;48.886;8.728;2023-07-24T12:09:07;8.80;;;5.90;;
2866;SDS011;1441;48.886;8.728;2023-07-24T12:11:44;5.77;;;5.17;;
2866;SDS011;1441;48.886;8.728;2023-07-24T12:14:11;7.60;;;6.40;;
2866;SDS011;1441;48.886;8.728;2023-07-24T12:16:38;6.50;;;5.30;;
2866;SDS011;1441;48.886;8.728;2023-07-24T12:19:03;6.83;;;5.50;;
2866;SDS011;1441;48.886;8.728;2023-07-24T12:21:29;10.40;;;6.70;;
2866;SDS011;1441;48.886;8.728;2023-07-24T12:23:54;6.70;;;5.63;;
2866;SDS011;1441;48.886;8.728;2023-07-24T12:26:20;8.40;;;5.60;;
2866;SDS011;1441;48.886;8.728;2023-07-24T12:28:46;6.30;;;5.30;;
2866;SDS011;1441;48.886;8.728;2023-07-24T12:31:11;8.60;;;6.07;;
2866;SDS011;1441;48.886;8.728;2023-07-24T12:33:37;6.97;;;5.50;;
2866;SDS011;1441;48.886;8.728;2023-07-24T12:36:02;7.67;;;5.83;;
2866;SDS011;1441;48.886;8.728;2023-07-24T12:38:28;8.93;;;5.80;;
2866;SDS011;1441;48.886;8.728;2023-07-24T12:40:54;6.97;;;5.53;;
2866;SDS011;1441;48.886;8.728;2023-07-24T12:43:20;6.57;;;5.50;;
2866;SDS011;1441;48.886;8.728;2023-07-24T12:45:45;7.53;;;5.80;;
2866;SDS011;1441;48.886;8.728;2023-07-24T12:48:11;7.60;;;5.43;;
2866;SDS011;1441;48.886;8.728;2023-07-24T12:50:36;7.13;;;5.43;;
2866;SDS011;1441;48.886;8.728;2023-07-24T12:53:02;7.13;;;6.43;;
2866;SDS011;1441;48.886;8.728;2023-07-24T12:55:27;7.83;;;5.23;;
2866;SDS011;1441;48.886;8.728;2023-07-24T12:57:54;7.13;;;5.30;;
2866;SDS011;1441;48.886;8.728;2023-07-24T13:00:21;6.03;;;4.93;;
2866;SDS011;1441;48.886;8.728;2023-07-24T13:02:46;6.13;;;5.00;;
2866;SDS011;1441;48.886;8.728;2023-07-24T13:05:12;8.20;;;5.33;;
2866;SDS011;1441;48.886;8.728;2023-07-24T13:07:37;7.10;;;5.00;;
2866;SDS011;1441;48.886;8.728;2023-07-24T13:10:03;6.67;;;4.77;;
2866;SDS011;1441;48.886;8.728;2023-07-24T13:12:29;5.90;;;4.63;;
2866;SDS011;1441;48.886;8.728;2023-07-24T13:14:54;5.50;;;4.93;;
2866;SDS011;1441;48.886;8.728;2023-07-24T13:17:20;5.07;;;4.57;;
2866;SDS011;1441;48.886;8.728;2023-07-24T13:19:46;5.93;;;5.00;;
2866;SDS011;1441;48.886;8.728;2023-07-24T13:22:12;5.10;;;4.60;;
2866;SDS011;1441;48.886;8.728;2023-07-24T13:24:37;4.43;;;4.03;;
2866;SDS011;1441;48.886;8.728;2023-07-24T13:27:03;5.60;;;4.97;;
2866;SDS011;1441;48.886;8.728;2023-07-24T13:29:29;5.50;;;4.67;;
2866;SDS011;1441;48.886;8.728;2023-07-24T13:31:55;7.30;;;5.40;;
2866;SDS011;1441;48.886;8.728;2023-07-24T13:34:21;5.27;;;4.57;;
2866;SDS011;1441;48.886;8.728;2023-07-24T13:36:48;4.93;;;4.43;;
2866;SDS011;1441;48.886;8.728;2023-07-24T13:39:14;6.63;;;4.67;;
2866;SDS011;1441;48.886;8.728;2023-07-24T13:41:39;4.80;;;4.23;;
2866;SDS011;1441;48.886;8.728;2023-07-24T13:44:05;8.90;;;4.90;;
2866;SDS011;1441;48.886;8.728;2023-07-24T13:46:31;6.10;;;4.50;;
2866;SDS011;1441;48.886;8.728;2023-07-24T13:48:56;5.10;;;4.60;;
2866;SDS011;1441;48.886;8.728;2023-07-24T13:51:22;5.17;;;4.67;;
2866;SDS011;1441;48.886;8.728;2023-07-24T13:53:48;6.03;;;4.27;;
2866;SDS011;1441;48.886;8.728;2023-07-24T13:56:16;5.70;;;4.73;;
2866;SDS011;1441;48.886;8.728;2023-07-24T13:58:43;6.40;;;5.20;;
2866;SDS011;1441;48.886;8.728;2023-07-24T14:01:10;7.20;;;4.67;;
2866;SDS011;1441;48.886;8.728;2023-07-24T14:03:35;5.27;;;4.20;;
2866;SDS011;1441;48.886;8.728;2023-07-24T14:06:01;6.37;;;4.60;;
2866;SDS011;1441;48.886;8.728;2023-07-24T14:08:27;5.50;;;4.87;;
2866;SDS011;1441;48.886;8.728;2023-07-24T14:10:53;5.93;;;4.93;;
2866;SDS011;1441;48.886;8.728;2023-07-24T14:13:18;7.00;;;4.90;;
2866;SDS011;1441;48.886;8.728;2023-07-24T14:15:44;5.03;;;4.53;;
2866;SDS011;1441;48.886;8.728;2023-07-24T14:18:09;6.23;;;4.57;;
2866;SDS011;1441;48.886;8.728;2023-07-24T14:20:35;5.07;;;4.13;;
2866;SDS011;1441;48.886;8.728;2023-07-24T14:23:02;5.63;;;5.00;;
2866;SDS011;1441;48.886;8.728;2023-07-24T14:25:27;5.83;;;5.10;;
2866;SDS011;1441;48.886;8.728;2023-07-24T14:27:53;5.13;;;4.43;;
2866;SDS011;1441;48.886;8.728;2023-07-24T14:30:19;4.17;;;3.73;;
2866;SDS011;1441;48.886;8.728;2023-07-24T14:32:44;4.43;;;3.70;;
2866;SDS011;1441;48.886;8.728;2023-07-24T14:35:10;5.63;;;3.93;;
2866;SDS011;1441;48.886;8.728;2023-07-24T14:37:36;5.60;;;4.20;;
2866;SDS011;1441;48.886;8.728;2023-07-24T14:40:01;4.30;;;3.90;;
2866;SDS011;1441;48.886;8.728;2023-07-24T14:42:27;4.67;;;4.20;;
2866;SDS011;1441;48.886;8.728;2023-07-24T14:44:53;5.20;;;4.30;;
2866;SDS011;1441;48.886;8.728;2023-07-24T14:47:18;9.10;;;4.10;;
2866;SDS011;1441;48.886;8.728;2023-07-24T14:49:44;4.13;;;3.73;;
2866;SDS011;1441;48.886;8.728;2023-07-24T14:52:09;4.07;;;3.67;;
2866;SDS011;1441;48.886;8.728;2023-07-24T14:54:35;4.37;;;3.90;;
2866;SDS011;1441;48.886;8.728;2023-07-24T14:57:01;10.70;;;5.30;;
2866;SDS011;1441;48.886;8.728;2023-07-24T14:59:27;8.50;;;5.53;;
2866;SDS011;1441;48.886;8.728;2023-07-24T15:01:53;7.70;;;6.03;;
2866;SDS011;1441;48.886;8.728;2023-07-24T15:04:19;4.60;;;4.10;;
2866;SDS011;1441;48.886;8.728;2023-07-24T15:06:44;5.03;;;4.37;;
2866;SDS011;1441;48.886;8.728;2023-07-24T15:09:10;4.90;;;4.03;;
2866;SDS011;1441;48.886;8.728;2023-07-24T15:11:36;4.70;;;3.70;;
2866;SDS011;1441;48.886;8.728;2023-07-24T15:14:01;3.57;;;3.27;;
2866;SDS011;1441;48.886;8.728;2023-07-24T15:16:27;4.07;;;3.67;;
2866;SDS011;1441;48.886;8.728;2023-07-24T15:18:53;4.47;;;3.80;;
2866;SDS011;1441;48.886;8.728;2023-07-24T15:21:18;8.10;;;3.03;;